首页
METAR-TAF:

METAR-TAF

机场 :

肯皮亞圖爾濟, 罗马尼亚

纬度: 46-30-12N, 经度: 023-53-07E, 海拔: 324米

当前天气观测

该预报发布于58分钟前的20:00 UTC
风速5节,风向北转西北
温度 20°C
湿度 78%
气压 1009 hPa
能见度10公里或以上
多云层高于10000英尺
小雨

METAR: LRCT 062000Z 33005KT 9999 -RA BKN100 20/16 Q1009 BLU BLU

时间: 23:58 (20:58 UTC)

预报

该预报发布于3小时和58分钟前的17:00 UTC
预报有效从06日的 18点(UTC)到 07日的 18点(UTC)
风速4节,风向西转西北
能见度10公里或以上
多云层高于10000英尺
成为
从 06日的 22点(UTC)到 07日的 00点(UTC)
风速5节,风向东南
成为
从 07日的 09点(UTC)到 07日的 11点(UTC)
风速15节,风向南转南东

TAF: LRCT 061700Z 0618/0718 30004KT 9999 BKN100 BECMG 0622/0700 13005KT BECMG 0709/0711 15015KT

超过4000个机场的气象观测和天气预报(METAR&TAF报告)。

可查询的气象台以黄色和红色小点在地图上表示。

将鼠标移到小点上方,可查看气象台名称。

然后点击查看天气观测和预报。

如需切换地图:点击带黑十字的绿色按钮放大地图;点击带横线的绿色按钮缩小地图;或者点击绿色箭头查看邻近地区的地图。


METAR-TAF: